Time;durP1;ratioP1;P1;durP2;ratioP2;P2;SDS_P1;SDS_P2;PMS_P1;PMS_P2;Temp;Humidity;BMP_temperature;BMP_pressure;BME280_temperature;BME280_humidity;BME280_pressure;Samples;Min_cycle;Max_cycle;Signal;HPM_P1;HPM_P2
2022/07/12 00:02:05;;;;;;;0.30;0.10;;;20.50;66.40;;;;;;5092993;28;20040;-74
2022/07/12 00:04:30;;;;;;;0.10;0.00;;;20.40;66.30;;;;;;5091411;28;20463;-74
2022/07/12 00:06:56;;;;;;;0.10;0.00;;;20.40;66.20;;;;;;5091832;28;20043;-75
2022/07/12 00:09:22;;;;;;;0.20;0.10;;;20.40;66.30;;;;;;5093385;28;20044;-74
2022/07/12 00:11:47;;;;;;;0.10;0.00;;;20.40;66.30;;;;;;5093214;28;20484;-74
2022/07/12 00:14:13;;;;;;;0.63;0.10;;;20.40;66.30;;;;;;5092043;28;20036;-74
2022/07/12 00:16:39;;;;;;;0.20;0.10;;;20.40;66.30;;;;;;5092803;28;20115;-73
2022/07/12 00:19:05;;;;;;;0.10;0.00;;;20.40;66.30;;;;;;5091435;28;20036;-74
2022/07/12 00:21:31;;;;;;;0.15;0.10;;;20.40;66.30;;;;;;5092801;28;20105;-74
2022/07/12 00:23:59;;;;;;;0.35;0.10;;;20.40;66.30;;;;;;5092582;28;20035;-74
2022/07/12 00:26:25;;;;;;;0.22;0.10;;;20.40;66.30;;;;;;5091130;28;20059;-74
2022/07/12 00:28:50;;;;;;;0.22;0.03;;;20.30;66.10;;;;;;5091147;28;20499;-74
2022/07/12 00:31:16;;;;;;;0.20;0.00;;;20.30;66.10;;;;;;5092637;28;20036;-74
2022/07/12 00:33:42;;;;;;;0.00;0.00;;;20.30;66.00;;;;;;5092372;28;20071;-74
2022/07/12 00:36:08;;;;;;;0.00;0.00;;;20.30;66.00;;;;;;5091172;28;20035;-74
2022/07/12 00:38:36;;;;;;;0.10;0.00;;;20.30;66.00;;;;;;5091269;28;20082;-74
2022/07/12 00:41:02;;;;;;;0.00;0.00;;;20.30;66.00;;;;;;5092286;28;20036;-75
2022/07/12 00:43:27;;;;;;;0.00;0.00;;;20.30;66.00;;;;;;5091233;28;20036;-74
2022/07/12 00:45:53;;;;;;;0.20;0.08;;;20.30;65.90;;;;;;5090952;28;20395;-74
2022/07/12 00:48:19;;;;;;;0.05;0.00;;;20.30;65.90;;;;;;5091094;28;20418;-74
2022/07/12 00:50:47;;;;;;;0.15;0.00;;;20.30;65.90;;;;;;5092245;28;20032;-74
2022/07/12 00:53:14;;;;;;;0.10;0.00;;;20.20;65.80;;;;;;5090785;28;20036;-74
2022/07/12 00:55:40;;;;;;;0.43;0.08;;;20.20;65.80;;;;;;5090871;28;20047;-74
2022/07/12 00:58:06;;;;;;;0.10;0.00;;;20.20;65.80;;;;;;5090925;28;20044;-74
2022/07/12 01:00:31;;;;;;;0.95;0.00;;;20.20;65.80;;;;;;5090796;28;20122;-74
2022/07/12 01:03:00;;;;;;;0.73;0.08;;;20.20;65.70;;;;;;5092003;28;20468;-74
2022/07/12 01:05:27;;;;;;;0.15;0.10;;;20.20;65.70;;;;;;5091671;28;20051;-74
2022/07/12 01:07:54;;;;;;;0.08;0.00;;;20.20;65.70;;;;;;5090675;28;20097;-74
2022/07/12 01:10:20;;;;;;;1.08;0.00;;;20.20;65.70;;;;;;5090506;28;20036;-74
2022/07/12 01:12:46;;;;;;;0.10;0.00;;;20.20;65.70;;;;;;5091935;28;20028;-74
2022/07/12 01:15:12;;;;;;;0.03;0.00;;;20.10;65.60;;;;;;5092047;28;20476;-74
2022/07/12 01:17:39;;;;;;;0.40;0.10;;;20.10;65.80;;;;;;5090632;28;20395;-75
2022/07/12 01:20:06;;;;;;;0.10;0.00;;;20.10;65.70;;;;;;5090784;28;20040;-74
2022/07/12 01:22:34;;;;;;;0.17;0.10;;;20.10;65.70;;;;;;5090547;28;20222;-74
2022/07/12 01:25:01;;;;;;;0.13;0.08;;;20.10;65.60;;;;;;5090634;28;20046;-74
2022/07/12 01:27:27;;;;;;;0.10;0.00;;;20.10;65.70;;;;;;5090520;28;20051;-74
2022/07/12 01:29:54;;;;;;;0.10;0.00;;;20.10;65.70;;;;;;5090524;28;20118;-74
2022/07/12 01:32:28;;;;;;;0.15;0.10;;;20.10;65.60;;;;;;5091752;28;20032;-74
2022/07/12 01:34:59;;;;;;;0.00;0.00;;;20.10;65.60;;;;;;5090681;28;20526;-74
2022/07/12 01:37:30;;;;;;;0.20;0.05;;;20.10;65.60;;;;;;5090499;28;20047;-74
2022/07/12 01:39:58;;;;;;;0.03;0.00;;;20.10;65.60;;;;;;5090580;28;20327;-74
2022/07/12 01:42:26;;;;;;;0.38;0.00;;;20.10;65.60;;;;;;5090647;28;20066;-74
2022/07/12 01:44:53;;;;;;;0.20;0.00;;;20.10;65.50;;;;;;5091624;28;20054;-74
2022/07/12 01:47:20;;;;;;;0.10;0.10;;;20.10;65.50;;;;;;5073724;28;20048;-74
2022/07/12 01:49:46;;;;;;;0.03;0.00;;;20.00;65.40;;;;;;5090571;28;20048;-74
2022/07/12 01:52:12;;;;;;;1.13;0.08;;;20.00;65.40;;;;;;5090202;28;20047;-74
2022/07/12 01:54:39;;;;;;;0.10;0.10;;;20.00;65.40;;;;;;5090479;28;20391;-74
2022/07/12 01:57:05;;;;;;;0.43;0.00;;;20.00;65.40;;;;;;5090499;28;20177;-74
2022/07/12 01:59:31;;;;;;;0.10;0.03;;;20.00;65.30;;;;;;5090194;28;20044;-74
2022/07/12 02:01:57;;;;;;;0.17;0.00;;;20.00;65.30;;;;;;5090441;28;20407;-74
2022/07/12 02:04:23;;;;;;;0.00;0.00;;;20.00;65.30;;;;;;5091473;28;20052;-73
2022/07/12 02:06:49;;;;;;;0.10;0.00;;;20.00;65.20;;;;;;5091445;28;20480;-73
2022/07/12 02:09:17;;;;;;;0.00;0.00;;;20.00;65.30;;;;;;5090385;28;20043;-73
2022/07/12 02:11:44;;;;;;;0.47;0.00;;;20.00;65.30;;;;;;5091702;28;20033;-73
2022/07/12 02:14:12;;;;;;;0.20;0.00;;;20.00;65.20;;;;;;5095157;28;20040;-73
2022/07/12 02:16:39;;;;;;;1.13;0.00;;;20.00;65.10;;;;;;5095044;28;20055;-75
2022/07/12 02:19:08;;;;;;;0.75;0.08;;;20.00;65.10;;;;;;5094012;28;20079;-73
2022/07/12 02:21:34;;;;;;;0.10;0.00;;;19.90;65.10;;;;;;5093632;28;20047;-75
2022/07/12 02:24:00;;;;;;;0.20;0.00;;;19.90;65.10;;;;;;5093840;28;20059;-74
2022/07/12 02:26:26;;;;;;;0.10;0.00;;;19.90;65.10;;;;;;5094758;28;20216;-74
2022/07/12 02:28:52;;;;;;;0.10;0.00;;;19.90;65.00;;;;;;5093535;28;20320;-74
2022/07/12 02:31:17;;;;;;;1.52;0.00;;;19.90;65.00;;;;;;5094771;28;20034;-74
2022/07/12 02:33:43;;;;;;;0.10;0.00;;;19.90;65.00;;;;;;5110657;28;20063;-74
2022/07/12 02:36:09;;;;;;;0.10;0.00;;;19.90;65.00;;;;;;5110670;28;20039;-74
2022/07/12 02:38:35;;;;;;;0.00;0.00;;;19.90;64.90;;;;;;5094764;28;20035;-74
2022/07/12 02:41:01;;;;;;;0.10;0.00;;;19.90;64.90;;;;;;5093277;28;20093;-74
2022/07/12 02:43:29;;;;;;;0.32;0.10;;;19.90;64.90;;;;;;5093208;28;20051;-73
2022/07/12 02:46:04;;;;;;;0.13;0.00;;;19.80;64.80;;;;;;5093148;28;20081;-74
2022/07/12 02:48:30;;;;;;;0.10;0.00;;;19.90;64.80;;;;;;5093157;28;20044;-74
2022/07/12 02:50:55;;;;;;;0.10;0.10;;;19.80;64.80;;;;;;5093373;28;20051;-73
2022/07/12 02:53:22;;;;;;;0.08;0.00;;;19.80;64.80;;;;;;5093002;28;20069;-74
2022/07/12 02:55:48;;;;;;;0.45;0.00;;;19.90;64.80;;;;;;5094249;28;20098;-74
2022/07/12 02:58:14;;;;;;;0.05;0.00;;;19.80;64.80;;;;;;5094323;28;20055;-73
2022/07/12 03:00:44;;;;;;;0.08;0.00;;;19.80;64.80;;;;;;5093369;28;20028;-74
2022/07/12 03:03:12;;;;;;;0.00;0.00;;;19.80;64.70;;;;;;5093070;28;20074;-74
2022/07/12 03:05:38;;;;;;;0.43;0.10;;;19.80;64.70;;;;;;5094312;28;20122;-74
2022/07/12 03:08:05;;;;;;;0.10;0.10;;;19.80;64.70;;;;;;5093945;28;20082;-74
2022/07/12 03:10:31;;;;;;;0.17;0.00;;;19.80;64.70;;;;;;5094173;28;20032;-74
2022/07/12 03:12:57;;;;;;;0.10;0.00;;;19.70;64.60;;;;;;5094104;28;20043;-74
2022/07/12 03:15:23;;;;;;;0.10;0.00;;;19.70;64.60;;;;;;5092945;28;20124;-74
2022/07/12 03:17:48;;;;;;;0.73;0.10;;;19.70;64.60;;;;;;5092552;28;20044;-74
2022/07/12 03:20:14;;;;;;;0.10;0.00;;;19.70;64.60;;;;;;5093841;28;20059;-74
2022/07/12 03:22:42;;;;;;;0.28;0.00;;;19.70;64.60;;;;;;5092679;28;20044;-74
2022/07/12 03:25:08;;;;;;;0.00;0.00;;;19.70;64.60;;;;;;5092385;28;20093;-74
2022/07/12 03:27:34;;;;;;;0.10;0.00;;;19.70;64.60;;;;;;5092410;28;20085;-74
2022/07/12 03:30:03;;;;;;;0.00;0.00;;;19.70;64.60;;;;;;5092579;28;20040;-74
2022/07/12 03:32:29;;;;;;;0.00;0.00;;;19.70;64.50;;;;;;5092498;28;20162;-74
2022/07/12 03:34:55;;;;;;;0.10;0.10;;;19.70;64.50;;;;;;5092115;28;20506;-74
2022/07/12 03:37:23;;;;;;;0.22;0.10;;;19.70;64.50;;;;;;5092201;28;20167;-74
2022/07/12 03:39:49;;;;;;;0.00;0.00;;;19.60;64.40;;;;;;5092418;28;20065;-74
2022/07/12 03:42:14;;;;;;;0.08;0.00;;;19.70;64.50;;;;;;5092366;28;20471;-74
2022/07/12 03:44:40;;;;;;;0.00;0.00;;;19.70;64.50;;;;;;5092117;28;20400;-74
2022/07/12 03:47:08;;;;;;;0.10;0.00;;;19.60;64.40;;;;;;5092326;28;20166;-74
2022/07/12 03:49:34;;;;;;;0.00;0.00;;;19.70;64.50;;;;;;5091823;28;20507;-74
2022/07/12 03:52:00;;;;;;;0.00;0.00;;;19.60;64.40;;;;;;5091978;28;20039;-75
2022/07/12 03:54:25;;;;;;;0.43;0.00;;;19.60;64.50;;;;;;5092012;28;20091;-74
2022/07/12 03:57:22;;;;;;;0.00;0.00;;;19.60;64.30;;;;;;5091795;28;20475;-74
2022/07/12 03:59:39;;;;;;;0.00;0.00;;;19.60;64.40;;;;;;5091515;28;20044;-74
2022/07/12 04:02:05;;;;;;;0.95;0.00;;;19.60;64.30;;;;;;5091719;28;20040;-74
2022/07/12 04:04:31;;;;;;;0.10;0.00;;;19.60;64.30;;;;;;5092538;28;20052;-74
2022/07/12 04:06:56;;;;;;;0.20;0.00;;;19.60;64.30;;;;;;5091827;28;20122;-74
2022/07/12 04:09:22;;;;;;;0.00;0.00;;;19.60;64.30;;;;;;5092919;28;20426;-74
2022/07/12 04:11:48;;;;;;;0.00;0.00;;;19.60;64.20;;;;;;5091451;28;20040;-75
2022/07/12 04:14:14;;;;;;;0.00;0.00;;;19.60;64.20;;;;;;5091504;28;20067;-74
2022/07/12 04:16:40;;;;;;;0.10;0.00;;;19.50;64.20;;;;;;5091366;28;20067;-75
2022/07/12 04:19:09;;;;;;;0.00;0.00;;;19.50;64.10;;;;;;5092668;28;20032;-74
2022/07/12 04:21:35;;;;;;;0.22;0.00;;;19.50;64.10;;;;;;5091181;28;20036;-74
2022/07/12 04:24:01;;;;;;;0.03;0.00;;;19.50;64.10;;;;;;5091303;28;20032;-74
2022/07/12 04:26:26;;;;;;;0.30;0.00;;;19.50;64.10;;;;;;5091328;28;20044;-74
2022/07/12 04:28:52;;;;;;;0.00;0.00;;;19.50;64.10;;;;;;5091141;28;20071;-74
2022/07/12 04:31:18;;;;;;;0.10;0.00;;;19.50;64.00;;;;;;5091415;28;20088;-74
2022/07/12 04:33:43;;;;;;;0.80;0.00;;;19.50;64.00;;;;;;5091196;28;20376;-74
2022/07/12 04:36:09;;;;;;;0.10;0.00;;;19.50;64.00;;;;;;5090645;28;20051;-74
2022/07/12 04:38:34;;;;;;;0.57;0.00;;;19.50;64.00;;;;;;5091023;28;20040;-74
2022/07/12 04:41:00;;;;;;;0.00;0.00;;;19.50;64.00;;;;;;5091048;28;20066;-74
2022/07/12 04:43:26;;;;;;;0.05;0.00;;;19.50;64.10;;;;;;5091077;28;20134;-74
2022/07/12 04:45:52;;;;;;;0.20;0.00;;;19.50;64.00;;;;;;5090820;28;20050;-74
2022/07/12 04:48:17;;;;;;;0.00;0.00;;;19.50;64.00;;;;;;5091009;28;20044;-74
2022/07/12 04:50:43;;;;;;;0.05;0.00;;;19.50;64.00;;;;;;5090924;28;20063;-74
2022/07/12 04:53:10;;;;;;;0.00;0.00;;;19.50;64.00;;;;;;5091099;28;20072;-74
2022/07/12 04:55:36;;;;;;;0.28;0.00;;;19.50;64.10;;;;;;5092061;28;20559;-74
2022/07/12 04:58:02;;;;;;;0.75;0.00;;;19.50;64.10;;;;;;5092059;28;20491;-74
2022/07/12 05:00:28;;;;;;;0.10;0.00;;;19.50;64.00;;;;;;5090876;28;20061;-73
2022/07/12 05:02:53;;;;;;;0.00;0.00;;;19.50;64.10;;;;;;5092033;28;20071;-74
2022/07/12 05:05:19;;;;;;;0.17;0.10;;;19.50;64.00;;;;;;5090525;28;20052;-74
2022/07/12 05:07:45;;;;;;;0.20;0.00;;;19.50;64.50;;;;;;5091848;28;20499;-74
2022/07/12 05:10:11;;;;;;;0.00;0.00;;;19.50;64.10;;;;;;5092251;28;20032;-75
2022/07/12 05:12:37;;;;;;;0.00;0.00;;;19.50;64.10;;;;;;5090896;28;20032;-74
2022/07/12 05:15:05;;;;;;;0.10;0.00;;;19.50;64.10;;;;;;5091992;28;20072;-75
2022/07/12 05:17:31;;;;;;;1.58;0.00;;;19.50;64.20;;;;;;5091855;28;20513;-74
2022/07/12 05:19:56;;;;;;;0.20;0.00;;;19.50;64.20;;;;;;5090687;28;20071;-74
2022/07/12 05:22:22;;;;;;;0.10;0.00;;;19.50;64.20;;;;;;5090788;28;20078;-74
2022/07/12 05:24:48;;;;;;;0.00;0.00;;;19.50;64.20;;;;;;5090551;28;20449;-73
2022/07/12 05:27:14;;;;;;;0.05;0.00;;;19.50;64.20;;;;;;5091784;28;20036;-73
2022/07/12 05:29:39;;;;;;;0.00;0.00;;;19.50;64.30;;;;;;5090321;28;20047;-72
2022/07/12 05:32:05;;;;;;;2.38;0.10;;;19.50;64.30;;;;;;5088361;28;20032;-73
2022/07/12 05:34:31;;;;;;;1.45;0.10;;;19.50;64.40;;;;;;5087457;28;20043;-74
2022/07/12 05:36:57;;;;;;;1.67;0.10;;;19.60;64.60;;;;;;5087953;28;20036;-72
2022/07/12 05:39:22;;;;;;;5.28;0.20;;;19.60;64.80;;;;;;5087129;28;20491;-71
2022/07/12 05:41:48;;;;;;;0.50;0.20;;;19.60;64.90;;;;;;5087591;28;20051;-71
2022/07/12 05:44:16;;;;;;;1.33;0.20;;;19.60;65.30;;;;;;5087491;28;20519;-72
2022/07/12 05:46:42;;;;;;;1.05;0.20;;;19.70;65.70;;;;;;5087243;28;20055;-72
2022/07/12 05:49:08;;;;;;;1.10;0.40;;;19.70;65.90;;;;;;5092686;28;20512;-71
2022/07/12 05:54:19;;;;;;;1.15;0.10;;;19.80;65.70;;;;;;5089504;28;20036;-71
2022/07/12 05:56:44;;;;;;;3.33;0.20;;;19.80;65.50;;;;;;5088821;28;20097;-71
2022/07/12 05:59:10;;;;;;;2.03;0.17;;;19.90;65.50;;;;;;5090244;28;20035;-71
2022/07/12 06:01:36;;;;;;;0.75;0.20;;;19.90;65.60;;;;;;5086981;28;20089;-68
2022/07/12 06:04:01;;;;;;;1.67;0.20;;;19.90;65.70;;;;;;5086847;28;20028;-69
2022/07/12 06:06:27;;;;;;;1.42;0.10;;;20.00;66.10;;;;;;5084876;28;20491;-69
2022/07/12 06:08:53;;;;;;;0.80;0.30;;;20.00;65.80;;;;;;5092166;28;20046;-74
2022/07/12 06:11:18;;;;;;;1.33;0.20;;;20.00;65.80;;;;;;5087405;28;20393;-69
2022/07/12 06:13:44;;;;;;;1.15;0.10;;;20.10;66.00;;;;;;5084606;28;20147;-68
2022/07/12 06:16:11;;;;;;;3.03;0.32;;;20.10;66.20;;;;;;5085171;28;20063;-67
2022/07/12 06:18:37;;;;;;;3.25;0.30;;;20.10;66.20;;;;;;5078828;28;20048;-68
2022/07/12 06:21:04;;;;;;;1.20;0.28;;;20.20;66.70;;;;;;5063418;28;20051;-69
2022/07/12 06:23:30;;;;;;;4.38;0.30;;;20.20;66.90;;;;;;5107817;27;20075;-67
2022/07/12 06:25:56;;;;;;;1.65;0.20;;;20.20;67.20;;;;;;5095627;27;20659;-71
2022/07/12 06:28:22;;;;;;;0.60;0.20;;;20.30;67.30;;;;;;5071978;28;20042;-70
2022/07/12 06:30:47;;;;;;;3.58;0.25;;;20.30;67.30;;;;;;5074704;28;20031;-70
2022/07/12 06:33:13;;;;;;;3.80;0.43;;;20.30;67.00;;;;;;5081575;28;20044;-71
2022/07/12 06:35:39;;;;;;;3.20;0.20;;;20.40;67.00;;;;;;5080635;28;20135;-71
2022/07/12 06:38:04;;;;;;;1.00;0.20;;;20.40;66.90;;;;;;5118587;27;20032;-71
2022/07/12 06:40:30;;;;;;;3.00;0.20;;;20.40;66.80;;;;;;5084239;28;20040;-71
2022/07/12 06:42:57;;;;;;;0.82;0.20;;;20.40;66.70;;;;;;5121512;27;20083;-70
2022/07/12 06:45:23;;;;;;;3.33;0.20;;;20.40;66.40;;;;;;5085677;28;20069;-73
2022/07/12 06:47:52;;;;;;;5.72;0.55;;;20.50;66.60;;;;;;5078220;28;20039;-71
2022/07/12 06:50:18;;;;;;;4.10;0.30;;;20.40;66.90;;;;;;5082839;28;20095;-75
2022/07/12 06:52:43;;;;;;;4.45;0.65;;;20.50;67.10;;;;;;5087886;28;20118;-74
2022/07/12 06:55:10;;;;;;;1.42;0.20;;;20.50;67.20;;;;;;5078695;28;20036;-74
2022/07/12 06:57:37;;;;;;;7.22;0.40;;;20.50;67.00;;;;;;5081167;28;20040;-73
2022/07/12 07:00:05;;;;;;;1.98;0.68;;;20.60;67.10;;;;;;5081393;28;20068;-72
2022/07/12 07:02:31;;;;;;;3.40;0.45;;;20.60;67.10;;;;;;5069047;28;20491;-72
2022/07/12 07:04:56;;;;;;;2.95;0.30;;;20.60;67.50;;;;;;5078016;28;20044;-73
2022/07/12 07:07:22;;;;;;;5.65;0.20;;;20.60;67.90;;;;;;5082267;28;20127;-76
2022/07/12 07:09:48;;;;;;;6.63;0.43;;;20.60;68.70;;;;;;5118444;27;20534;-75
2022/07/12 07:12:16;;;;;;;3.72;0.30;;;20.70;68.00;;;;;;5081062;28;20557;-75
2022/07/12 07:14:45;;;;;;;4.07;0.38;;;20.70;68.20;;;;;;5083778;28;20484;-72
2022/07/12 07:17:10;;;;;;;2.40;0.40;;;20.70;68.20;;;;;;5082636;28;20761;-75
2022/07/12 07:19:37;;;;;;;4.30;0.30;;;20.70;68.20;;;;;;5077782;28;20120;-74
2022/07/12 07:22:02;;;;;;;3.83;0.43;;;20.80;68.30;;;;;;5115052;27;20036;-75
2022/07/12 07:24:31;;;;;;;3.85;0.40;;;20.80;68.10;;;;;;5072854;28;20741;-74
2022/07/12 07:26:56;;;;;;;1.77;0.47;;;20.80;68.20;;;;;;5079389;28;20048;-74
2022/07/12 07:32:07;;;;;;;3.80;0.30;;;20.90;68.10;;;;;;5076960;28;20123;-76
2022/07/12 07:34:33;;;;;;;5.70;0.60;;;20.90;68.10;;;;;;5077935;28;20695;-76
2022/07/12 07:36:59;;;;;;;3.88;0.30;;;20.90;68.10;;;;;;5074451;28;20036;-71
2022/07/12 07:39:24;;;;;;;2.03;0.30;;;21.00;68.10;;;;;;5078637;28;20039;-78
2022/07/12 07:41:50;;;;;;;3.33;0.50;;;21.00;68.30;;;;;;5091356;28;20047;-76
2022/07/12 07:44:15;;;;;;;3.05;0.40;;;21.00;68.20;;;;;;5061483;28;20048;-75
2022/07/12 07:46:41;;;;;;;1.52;0.30;;;21.10;68.20;;;;;;5095713;27;20043;-74
2022/07/12 07:49:07;;;;;;;1.75;0.60;;;21.00;68.10;;;;;;5081476;28;20159;-73
2022/07/12 07:51:32;;;;;;;0.85;0.50;;;21.10;68.20;;;;;;5109028;27;20048;-72
2022/07/12 07:53:58;;;;;;;4.22;0.35;;;21.10;68.10;;;;;;5075126;28;21406;-69
2022/07/12 07:56:24;;;;;;;3.33;0.20;;;21.10;68.10;;;;;;5084750;28;20510;-71
2022/07/12 07:58:51;;;;;;;1.52;0.50;;;21.10;68.00;;;;;;5084636;28;20550;-68
2022/07/12 08:01:20;;;;;;;1.55;0.20;;;21.20;68.40;;;;;;5120157;27;20074;-67
2022/07/12 08:03:45;;;;;;;3.30;0.60;;;21.20;68.70;;;;;;5085690;28;20470;-74
2022/07/12 08:06:11;;;;;;;4.15;0.20;;;21.20;68.80;;;;;;5086649;28;20067;-76
2022/07/12 08:08:37;;;;;;;7.78;0.60;;;21.20;68.80;;;;;;5110788;27;20070;-74
2022/07/12 08:11:03;;;;;;;2.92;0.47;;;21.30;68.70;;;;;;5106581;27;20039;-72
2022/07/12 08:13:28;;;;;;;3.78;0.30;;;21.30;68.60;;;;;;5077700;28;20483;-72
2022/07/12 08:15:54;;;;;;;4.68;0.45;;;21.40;68.70;;;;;;5081972;28;20051;-72
2022/07/12 08:18:23;;;;;;;2.13;0.40;;;21.40;68.50;;;;;;5075249;28;20047;-75
2022/07/12 08:20:48;;;;;;;6.53;0.55;;;21.40;68.50;;;;;;5110556;27;20122;-75
2022/07/12 08:23:14;;;;;;;2.38;0.40;;;21.40;68.40;;;;;;5090573;28;20077;-72
2022/07/12 08:25:40;;;;;;;5.63;0.40;;;21.50;68.20;;;;;;5082965;28;20044;-74
2022/07/12 08:28:06;;;;;;;2.30;0.40;;;21.50;68.10;;;;;;5086910;28;20074;-74
2022/07/12 08:30:34;;;;;;;2.70;0.50;;;21.50;68.00;;;;;;5084898;28;20543;-75
2022/07/12 08:33:00;;;;;;;2.72;0.40;;;21.60;68.00;;;;;;5083057;28;20074;-75
2022/07/12 08:35:26;;;;;;;3.60;0.30;;;21.60;67.80;;;;;;5083948;28;20068;-70
2022/07/12 08:37:51;;;;;;;3.58;0.30;;;21.60;67.70;;;;;;5083397;28;20050;-70
2022/07/12 08:40:17;;;;;;;4.68;1.00;;;21.70;67.70;;;;;;5085724;28;20628;-70
2022/07/12 08:42:43;;;;;;;3.05;0.40;;;21.70;67.80;;;;;;5086945;28;20032;-70
2022/07/12 08:45:09;;;;;;;3.60;0.20;;;21.70;67.70;;;;;;5086942;28;20035;-71
2022/07/12 08:47:35;;;;;;;2.15;0.10;;;21.80;68.50;;;;;;5069598;28;20044;-70
2022/07/12 08:50:19;;;;;;;1.75;0.30;;;21.80;67.60;;;;;;5105776;27;20081;-69
2022/07/12 08:52:47;;;;;;;4.70;0.43;;;21.80;67.90;;;;;;5076209;28;20044;-71
2022/07/12 08:57:58;;;;;;;4.60;0.30;;;21.90;68.10;;;;;;5102936;27;1286440;-69
2022/07/12 09:00:25;;;;;;;3.85;0.40;;;22.00;68.10;;;;;;5129328;27;20054;-69
2022/07/12 09:02:54;;;;;;;1.45;0.40;;;22.00;67.90;;;;;;5129857;27;20117;-72
2022/07/12 09:05:23;;;;;;;7.57;1.35;;;22.10;68.00;;;;;;5133840;27;20047;-70
2022/07/12 09:07:50;;;;;;;3.80;0.20;;;22.20;68.00;;;;;;5150038;27;20080;-71
2022/07/12 09:10:17;;;;;;;5.05;0.30;;;22.40;67.60;;;;;;5128746;27;20038;-73
2022/07/12 09:12:43;;;;;;;5.25;0.40;;;22.50;67.20;;;;;;5128510;27;20133;-71
2022/07/12 09:15:11;;;;;;;10.52;0.70;;;22.50;66.70;;;;;;5122406;27;20043;-69
2022/07/12 09:17:37;;;;;;;4.28;0.30;;;22.60;67.20;;;;;;5125454;27;20101;-72
2022/07/12 09:20:04;;;;;;;3.03;0.30;;;22.80;66.40;;;;;;5142148;27;20565;-72
2022/07/12 09:22:30;;;;;;;2.40;0.40;;;23.00;66.20;;;;;;5141690;27;20795;-73
2022/07/12 09:24:55;;;;;;;5.93;0.50;;;23.10;66.00;;;;;;5121652;27;20043;-72
2022/07/12 09:27:25;;;;;;;1.88;0.40;;;23.10;65.80;;;;;;5126258;27;20083;-74
2022/07/12 09:29:51;;;;;;;3.38;0.50;;;23.20;65.70;;;;;;5147875;27;20039;-74
2022/07/12 09:37:49;;;;;;;4.45;0.40;;;23.40;65.30;;;;;;5138322;27;20061;-73
2022/07/12 09:40:16;;;;;;;1.52;0.30;;;23.40;65.40;;;;;;5143377;27;20042;-72
2022/07/12 09:42:42;;;;;;;6.25;0.70;;;23.40;65.20;;;;;;5128414;27;20042;-72
2022/07/12 09:45:09;;;;;;;4.13;0.50;;;23.40;65.10;;;;;;5127453;27;20795;-73
2022/07/12 09:47:35;;;;;;;3.00;0.30;;;23.40;65.20;;;;;;5125016;27;20034;-74
2022/07/12 09:50:07;;;;;;;0.93;0.28;;;23.40;65.20;;;;;;5130769;27;20064;-70
2022/07/12 09:52:36;;;;;;;2.53;0.40;;;23.40;65.30;;;;;;5124484;27;20769;-74
2022/07/12 09:55:03;;;;;;;11.77;1.27;;;23.40;65.30;;;;;;5125921;27;20435;-73
2022/07/12 09:57:31;;;;;;;11.68;0.65;;;23.40;65.30;;;;;;5123876;27;20057;-74
2022/07/12 09:59:58;;;;;;;7.72;0.45;;;23.40;65.30;;;;;;5132623;27;20058;-75
2022/07/12 10:02:25;;;;;;;12.30;1.30;;;23.40;65.30;;;;;;5132119;27;20042;-68
2022/07/12 10:04:51;;;;;;;4.95;0.43;;;23.40;65.30;;;;;;5127929;27;20100;-71
2022/07/12 10:07:17;;;;;;;8.57;1.70;;;23.40;65.10;;;;;;5132165;27;20060;-69
2022/07/12 10:09:50;;;;;;;3.15;0.38;;;23.50;65.10;;;;;;5112341;27;20046;-68
2022/07/12 10:12:18;;;;;;;4.38;0.50;;;23.40;65.10;;;;;;5116547;27;20486;-68
2022/07/12 10:14:45;;;;;;;7.20;0.52;;;23.50;65.20;;;;;;5114627;27;20039;-70
2022/07/12 10:17:12;;;;;;;5.88;0.40;;;23.40;65.20;;;;;;5112904;27;20042;-68
2022/07/12 10:19:39;;;;;;;4.68;0.73;;;23.50;65.20;;;;;;5129299;27;20163;-69
2022/07/12 10:22:07;;;;;;;6.80;0.50;;;23.50;65.30;;;;;;5130261;27;20367;-68
2022/07/12 10:30:13;;;;;;;3.05;0.32;;;23.40;65.10;;;;;;5108461;27;20414;-69
2022/07/12 10:32:43;;;;;;;2.10;0.30;;;23.50;65.10;;;;;;5105221;28;20046;-71
2022/07/12 10:35:15;;;;;;;1.58;0.28;;;23.50;65.10;;;;;;5093498;28;20131;-69
2022/07/12 10:37:41;;;;;;;3.45;0.30;;;23.50;65.10;;;;;;5094588;28;20500;-69
2022/07/12 10:40:22;;;;;;;5.03;0.30;;;23.50;65.10;;;;;;5121576;27;20046;-70
2022/07/12 10:45:44;;;;;;;2.05;0.32;;;23.40;65.10;;;;;;5070759;27;20965;-70
2022/07/12 10:50:55;;;;;;;3.20;0.90;;;23.40;65.20;;;;;;5073170;27;20409;-76
2022/07/12 10:56:21;;;;;;;6.85;0.45;;;23.40;65.20;;;;;;5067121;28;20427;-77
2022/07/12 10:58:52;;;;;;;2.10;0.28;;;23.40;65.00;;;;;;5080392;28;20070;-73
2022/07/12 11:01:21;;;;;;;3.67;0.43;;;23.40;65.00;;;;;;5081694;28;20064;-77
2022/07/12 11:03:50;;;;;;;3.20;0.30;;;23.40;64.90;;;;;;5081924;28;20043;-78
2022/07/12 11:06:18;;;;;;;3.42;0.50;;;23.30;65.00;;;;;;5064180;28;20036;-73
2022/07/12 11:11:33;;;;;;;3.03;0.30;;;23.30;65.00;;;;;;5106899;27;20832;-74
2022/07/12 11:14:00;;;;;;;3.28;0.52;;;23.30;64.80;;;;;;5104323;27;20039;-73
2022/07/12 11:16:26;;;;;;;4.55;0.60;;;23.30;64.60;;;;;;5108146;27;20036;-74
2022/07/12 11:18:53;;;;;;;2.78;0.30;;;23.40;64.30;;;;;;5107040;27;20100;-73
2022/07/12 11:21:20;;;;;;;2.15;0.20;;;23.40;64.10;;;;;;5104382;27;20540;-74
2022/07/12 11:23:45;;;;;;;1.55;0.13;;;23.40;63.90;;;;;;5112165;27;20177;-72
2022/07/12 11:26:13;;;;;;;0.35;0.20;;;23.50;63.90;;;;;;5108513;27;20111;-74
2022/07/12 11:28:40;;;;;;;1.48;0.17;;;23.50;63.70;;;;;;5113079;27;20141;-72
2022/07/12 11:33:47;;;;;;;2.80;0.10;;;23.50;63.60;;;;;;5080409;27;20484;-69
2022/07/12 11:36:14;;;;;;;1.13;0.30;;;23.60;63.80;;;;;;5060008;28;20130;-69
2022/07/12 11:38:41;;;;;;;3.17;0.50;;;23.60;64.10;;;;;;5076009;28;20158;-68
2022/07/12 11:41:09;;;;;;;8.45;0.30;;;23.70;64.30;;;;;;5055161;28;20056;-69
2022/07/12 11:43:36;;;;;;;6.45;0.75;;;23.70;64.30;;;;;;5076139;28;20051;-70
2022/07/12 11:46:03;;;;;;;4.60;0.50;;;23.80;64.10;;;;;;5054970;28;20043;-69
2022/07/12 11:48:32;;;;;;;10.63;0.60;;;23.80;63.80;;;;;;5056310;28;20040;-69
2022/07/12 11:51:03;;;;;;;6.60;0.32;;;23.80;63.70;;;;;;5056266;28;20045;-70
2022/07/12 11:53:30;;;;;;;1.75;0.30;;;23.80;63.60;;;;;;5073478;28;20090;-70
2022/07/12 11:55:57;;;;;;;3.83;0.30;;;23.80;63.50;;;;;;5059217;28;20503;-70
2022/07/12 11:58:28;;;;;;;6.30;0.50;;;23.80;63.30;;;;;;5057406;28;20041;-70
2022/07/12 12:00:55;;;;;;;3.40;0.35;;;23.90;63.20;;;;;;5054696;28;20505;-70
2022/07/12 12:03:22;;;;;;;2.72;0.30;;;23.90;63.00;;;;;;5076726;28;20542;-71
2022/07/12 12:05:51;;;;;;;1.23;0.20;;;23.90;62.80;;;;;;5057577;28;20052;-74
2022/07/12 12:08:18;;;;;;;4.43;0.22;;;23.90;62.70;;;;;;5060984;28;20051;-70
2022/07/12 12:10:54;;;;;;;3.63;0.35;;;23.90;62.60;;;;;;5072674;28;20028;-72
2022/07/12 12:13:20;;;;;;;2.33;0.20;;;23.90;62.70;;;;;;5058247;28;20055;-72
2022/07/12 12:21:15;;;;;;;0.43;0.10;;;23.90;62.60;;;;;;5100257;27;20427;-71
2022/07/12 12:23:42;;;;;;;1.95;0.10;;;23.90;62.50;;;;;;5091037;28;20120;-70
2022/07/12 12:28:50;;;;;;;2.25;0.13;;;24.00;62.50;;;;;;5133324;27;1173265;-69
2022/07/12 12:31:18;;;;;;;3.65;0.28;;;24.00;62.40;;;;;;5144736;27;20045;-70
2022/07/12 12:33:48;;;;;;;0.68;0.13;;;24.00;62.50;;;;;;5139946;27;20042;-72
2022/07/12 12:38:56;;;;;;;0.98;0.30;;;24.00;62.60;;;;;;5064214;27;20405;-71
2022/07/12 12:41:24;;;;;;;1.67;0.10;;;24.00;62.70;;;;;;5036598;28;20671;-69
2022/07/12 12:49:49;;;;;;;2.25;0.20;;;24.00;63.00;;;;;;5087434;27;20467;-73
2022/07/12 12:52:15;;;;;;;1.67;0.10;;;24.10;63.20;;;;;;5076942;28;20052;-71
2022/07/12 12:54:41;;;;;;;5.47;0.30;;;24.20;62.90;;;;;;5074067;28;20048;-69
2022/07/12 12:57:08;;;;;;;0.88;0.10;;;24.20;62.80;;;;;;5102184;27;20155;-71
2022/07/12 12:59:34;;;;;;;0.77;0.43;;;24.30;62.70;;;;;;5054468;28;20040;-71
2022/07/12 13:02:01;;;;;;;0.82;0.10;;;24.30;62.40;;;;;;5069450;28;20052;-71
2022/07/12 13:04:34;;;;;;;4.85;0.50;;;24.30;62.10;;;;;;5073101;28;20060;-71
2022/07/12 13:07:00;;;;;;;2.60;0.10;;;24.40;62.00;;;;;;5071323;28;20101;-71
2022/07/12 13:09:28;;;;;;;7.60;0.50;;;24.40;61.90;;;;;;5073815;28;20044;-71
2022/07/12 13:11:54;;;;;;;3.22;0.10;;;24.40;61.70;;;;;;5073924;28;20044;-71
2022/07/12 13:14:20;;;;;;;2.85;0.20;;;24.30;61.80;;;;;;5077334;28;20112;-70
2022/07/12 13:16:46;;;;;;;4.82;0.20;;;24.20;61.80;;;;;;5110051;28;20103;-71
2022/07/12 13:19:11;;;;;;;6.40;0.30;;;24.10;61.90;;;;;;5071948;28;20058;-71
2022/07/12 13:21:37;;;;;;;3.92;0.40;;;24.10;61.90;;;;;;5108026;28;20045;-71
2022/07/12 13:24:03;;;;;;;2.92;0.32;;;24.00;61.90;;;;;;5082643;28;20031;-72
2022/07/12 13:26:29;;;;;;;1.98;0.15;;;24.00;62.20;;;;;;5072978;28;20052;-71
2022/07/12 13:28:58;;;;;;;0.52;0.10;;;24.00;62.20;;;;;;5076443;28;20549;-70
2022/07/12 13:31:26;;;;;;;1.08;0.22;;;24.00;61.90;;;;;;5074758;28;20047;-69
2022/07/12 13:33:52;;;;;;;2.30;0.10;;;24.10;61.70;;;;;;5075480;28;20097;-68